Time;durP1;ratioP1;P1;durP2;ratioP2;P2;SDS_P1;SDS_P2;PMS_P1;PMS_P2;Temp;Humidity;BMP_temperature;BMP_pressure;BME280_temperature;BME280_humidity;BME280_pressure;Samples;Min_cycle;Max_cycle;Signal;HPM_P1;HPM_P2
2023/04/17 00:00:51;;;;;;;58.80;38.00;;;;;;;10.18;100.00;99887.75;105801;1264;61344;-83
2023/04/17 00:03:20;;;;;;;75.00;40.50;;;;;;;10.24;100.00;99890.73;105848;1266;75545;-84
2023/04/17 00:05:48;;;;;;;;;;;;;;;10.28;100.00;99889.15;105458;1267;67855;-84
2023/04/17 00:08:18;;;;;;;68.50;37.90;;;;;;;10.38;100.00;99887.23;105386;1270;72598;-86
2023/04/17 00:10:47;;;;;;;63.20;38.30;;;;;;;10.43;100.00;99884.25;105447;1265;62499;-85
2023/04/17 00:13:33;;;;;;;59.60;36.10;;;;;;;10.39;100.00;99882.65;106031;1265;61232;-85
2023/04/17 00:16:02;;;;;;;61.50;37.40;;;;;;;10.42;100.00;99879.84;105789;1270;75653;-85
2023/04/17 00:18:30;;;;;;;62.40;37.20;;;;;;;10.37;100.00;99881.10;105897;1264;68911;-85
2023/04/17 00:20:59;;;;;;;60.60;37.80;;;;;;;10.45;100.00;99885.19;106300;1264;72747;-86
2023/04/17 00:23:27;;;;;;;64.50;38.50;;;;;;;10.43;100.00;99884.67;106064;1265;61270;-85
2023/04/17 00:25:55;;;;;;;60.30;36.90;;;;;;;10.46;100.00;99884.31;106020;1265;61690;-85
2023/04/17 00:28:25;;;;;;;;;;;;;;;10.39;100.00;99884.50;106403;1264;75012;-85
2023/04/17 00:30:53;;;;;;;63.70;38.80;;;;;;;10.41;100.00;99879.91;106580;1264;68508;-85
2023/04/17 00:33:23;;;;;;;57.90;37.60;;;;;;;10.46;100.00;99878.66;106266;1269;73488;-85
2023/04/17 00:35:51;;;;;;;;;;;;;;;10.62;100.00;99880.40;105801;1265;61989;-85
2023/04/17 00:38:19;;;;;;;;;;;;;;;10.33;100.00;99880.76;105330;1267;61373;-84
2023/04/17 00:40:50;;;;;;;68.10;38.60;;;;;;;10.36;100.00;99876.20;105754;1265;75810;-84
2023/04/17 00:43:18;;;;;;;70.90;39.80;;;;;;;10.39;100.00;99871.96;105351;1265;68725;-83
2023/04/17 00:45:47;;;;;;;68.10;40.00;;;;;;;10.32;100.00;99868.24;106052;1268;72371;-85
2023/04/17 00:48:15;;;;;;;68.80;41.00;;;;;;;10.22;100.00;99871.13;105909;1264;61384;-85
2023/04/17 00:50:44;;;;;;;65.40;38.10;;;;;;;10.27;100.00;99869.82;106239;1264;61279;-84
2023/04/17 00:53:13;;;;;;;60.40;36.50;;;;;;;10.32;100.00;99871.80;106097;1265;74397;-84
2023/04/17 00:55:42;;;;;;;71.10;43.60;;;;;;;10.33;100.00;99876.47;105627;1265;69848;-84
2023/04/17 00:58:10;;;;;;;75.30;45.50;;;;;;;10.27;100.00;99872.45;105849;1265;73137;-84
2023/04/17 01:00:39;;;;;;;66.00;43.50;;;;;;;10.41;100.00;99872.64;105926;1269;61252;-84
2023/04/17 01:03:07;;;;;;;68.40;41.40;;;;;;;10.36;100.00;99870.52;105846;1266;61263;-84
2023/04/17 01:05:37;;;;;;;70.50;41.80;;;;;;;10.29;100.00;99872.10;105624;1265;73669;-83
2023/04/17 01:08:05;;;;;;;62.20;38.90;;;;;;;10.45;100.00;99871.94;105810;1272;68363;-85
2023/04/17 01:10:33;;;;;;;67.20;40.60;;;;;;;10.36;100.00;99873.39;106094;1266;71741;-85
2023/04/17 01:13:03;;;;;;;67.80;41.80;;;;;;;10.40;100.00;99874.90;105831;1265;61296;-84
2023/04/17 01:15:31;;;;;;;67.40;41.10;;;;;;;9.93;100.00;99871.11;105646;1266;59326;-84
2023/04/17 01:17:59;;;;;;;65.50;39.90;;;;;;;9.95;100.00;99867.83;105693;1265;72781;-84
2023/04/17 01:20:31;;;;;;;;;;;;;;;9.96;100.00;99866.61;105884;1264;67844;-83
2023/04/17 01:22:59;;;;;;;56.10;36.20;;;;;;;9.93;100.00;99865.77;105868;1265;71420;-84
2023/04/17 01:25:28;;;;;;;64.30;38.90;;;;;;;9.96;100.00;99869.41;105718;1265;61430;-85
2023/04/17 01:27:56;;;;;;;;;;;;;;;10.16;100.00;99874.72;105625;1266;61361;-82
2023/04/17 01:30:27;;;;;;;53.60;33.10;;;;;;;10.01;100.00;99877.91;105945;1265;75081;-81
2023/04/17 01:33:15;;;;;;;57.30;34.90;;;;;;;10.07;100.00;99875.21;105750;1265;69259;-83
2023/04/17 01:35:44;;;;;;;61.50;39.20;;;;;;;10.04;100.00;99876.06;105749;1265;73220;-84
2023/04/17 01:38:12;;;;;;;53.40;34.80;;;;;;;10.11;100.00;99876.45;105805;1265;61363;-82
2023/04/17 01:40:41;;;;;;;55.00;35.80;;;;;;;10.04;100.00;99875.65;105870;1266;61400;-84
2023/04/17 01:43:10;;;;;;;66.60;40.90;;;;;;;10.17;100.00;99876.67;105748;1265;74793;-83
2023/04/17 01:45:38;;;;;;;59.20;36.20;;;;;;;10.22;100.00;99874.45;105732;1265;68376;-84
2023/04/17 01:48:06;;;;;;;60.40;39.10;;;;;;;10.22;100.00;99878.17;105640;1264;72770;-84
2023/04/17 01:50:34;;;;;;;65.70;43.70;;;;;;;9.65;100.00;99876.41;105970;1265;61246;-85
2023/04/17 01:53:02;;;;;;;65.00;37.90;;;;;;;9.81;100.00;99872.09;106219;1265;61281;-85
2023/04/17 01:55:30;;;;;;;61.80;38.50;;;;;;;9.82;100.00;99873.64;105982;1264;74704;-84
2023/04/17 01:57:59;;;;;;;55.90;34.80;;;;;;;9.87;100.00;99866.83;105851;1265;69313;-80
2023/04/17 02:00:27;;;;;;;54.90;33.10;;;;;;;9.82;100.00;99869.27;105639;1266;71936;-84
2023/04/17 02:02:55;;;;;;;50.00;31.60;;;;;;;9.79;100.00;99869.45;105898;1264;61278;-84
2023/04/17 02:05:24;;;;;;;50.50;32.60;;;;;;;9.83;100.00;99867.13;105714;1267;61157;-83
2023/04/17 02:07:52;;;;;;;52.70;35.50;;;;;;;9.99;100.00;99864.66;105823;1265;73935;-83
2023/04/17 02:10:20;;;;;;;51.30;33.00;;;;;;;9.92;100.00;99864.39;105937;1267;68770;-85
2023/04/17 02:12:48;;;;;;;45.90;30.50;;;;;;;10.00;100.00;99865.40;106412;1264;72964;-84
2023/04/17 02:15:17;;;;;;;41.80;29.30;;;;;;;10.19;100.00;99863.88;105872;1265;61227;-85
2023/04/17 02:17:45;;;;;;;38.70;29.40;;;;;;;10.20;100.00;99866.41;105722;1265;61363;-83
2023/04/17 02:20:14;;;;;;;43.70;28.90;;;;;;;10.29;100.00;99862.78;105532;1265;75344;-84
2023/04/17 02:22:42;;;;;;;38.20;27.30;;;;;;;10.27;100.00;99861.77;105602;1265;69408;-84
2023/04/17 02:25:10;;;;;;;42.00;27.80;;;;;;;10.26;100.00;99867.59;105553;1265;72708;-83
2023/04/17 02:27:39;;;;;;;40.30;27.50;;;;;;;10.26;100.00;99869.69;105660;1265;62279;-84
2023/04/17 02:30:08;;;;;;;39.60;28.30;;;;;;;10.26;100.00;99870.33;105748;1265;61248;-83
2023/04/17 02:32:36;;;;;;;39.50;28.40;;;;;;;10.43;100.00;99871.00;105685;1265;73987;-83
2023/04/17 02:35:06;;;;;;;40.80;27.40;;;;;;;10.21;100.00;99876.84;105696;1265;68713;-83
2023/04/17 02:37:36;;;;;;;38.80;27.00;;;;;;;10.23;100.00;99877.03;105596;1270;73078;-82
2023/04/17 02:40:06;;;;;;;50.00;30.60;;;;;;;10.09;100.00;99877.61;105653;1264;61696;-83
2023/04/17 02:42:34;;;;;;;43.20;31.30;;;;;;;10.18;100.00;99877.23;105664;1265;61444;-83
2023/04/17 02:45:03;;;;;;;43.90;30.70;;;;;;;10.18;100.00;99880.98;105653;1265;75429;-83
2023/04/17 02:47:32;;;;;;;44.80;30.00;;;;;;;10.20;100.00;99880.10;105433;1265;69182;-82
2023/04/17 02:50:02;;;;;;;45.90;30.20;;;;;;;10.08;100.00;99884.39;105348;1265;73726;-82
2023/04/17 02:52:35;;;;;;;45.40;31.00;;;;;;;10.17;100.00;99880.71;105563;1270;61339;-83
2023/04/17 02:55:04;;;;;;;42.80;30.90;;;;;;;10.05;100.00;99879.80;105542;1265;61278;-82
2023/04/17 02:57:33;;;;;;;44.70;29.30;;;;;;;10.17;100.00;99876.52;105659;1270;74763;-82
2023/04/17 03:00:02;;;;;;;40.00;29.80;;;;;;;10.19;100.00;99876.05;105242;1273;68777;-84
2023/04/17 03:02:33;;;;;;;41.60;28.70;;;;;;;10.29;100.00;99877.41;108632;1265;71953;-84
2023/04/17 03:05:03;;;;;;;37.70;27.00;;;;;;;10.40;100.00;99879.86;108608;1265;61217;-83
2023/04/17 03:07:31;;;;;;;44.70;31.40;;;;;;;10.22;100.00;99879.62;108428;1265;281604;-83
2023/04/17 03:10:00;;;;;;;34.30;25.10;;;;;;;9.99;100.00;99880.40;105795;1269;74661;-84
2023/04/17 03:12:30;;;;;;;37.00;25.70;;;;;;;10.07;100.00;99884.02;105473;1265;69606;-84
2023/04/17 03:15:00;;;;;;;36.40;25.60;;;;;;;9.99;100.00;99885.91;105687;1265;73236;-84
2023/04/17 03:17:29;;;;;;;40.70;27.40;;;;;;;9.99;100.00;99883.23;105637;1266;61328;-84
2023/04/17 03:19:58;;;;;;;35.10;25.00;;;;;;;10.15;100.00;99888.22;105862;1264;61275;-85
2023/04/17 03:22:26;;;;;;;39.30;25.40;;;;;;;10.18;100.00;99888.55;105457;1265;75218;-85
2023/04/17 03:24:54;;;;;;;37.30;26.20;;;;;;;10.21;100.00;99892.23;105912;1265;68687;-85
2023/04/17 03:27:25;;;;;;;38.30;27.70;;;;;;;10.26;100.00;99898.01;105811;1265;72838;-85
2023/04/17 03:29:55;;;;;;;37.30;25.80;;;;;;;10.28;100.00;99899.45;105565;1265;61510;-83
2023/04/17 03:32:24;;;;;;;38.70;26.80;;;;;;;10.38;100.00;99895.55;105680;1265;61360;-83
2023/04/17 03:34:52;;;;;;;40.60;28.60;;;;;;;10.40;100.00;99900.83;105689;1265;74487;-84
2023/04/17 03:37:21;;;;;;;40.90;27.50;;;;;;;10.43;100.00;99900.09;105926;1268;66794;-84
2023/04/17 03:39:49;;;;;;;39.00;28.40;;;;;;;10.38;100.00;99901.30;105610;1267;70554;-83
2023/04/17 03:42:18;;;;;;;55.70;30.40;;;;;;;10.28;100.00;99901.31;105577;1264;61947;-83
2023/04/17 03:44:46;;;;;;;41.30;28.90;;;;;;;10.27;100.00;99901.37;105547;1265;61165;-84
2023/04/17 03:47:14;;;;;;;37.30;28.10;;;;;;;10.32;100.00;99902.48;105705;1265;73993;-84
2023/04/17 03:49:42;;;;;;;;;;;;;;;10.17;100.00;99898.92;106463;1265;67825;-83
2023/04/17 03:52:12;;;;;;;42.90;28.60;;;;;;;10.05;100.00;99905.97;105834;1265;71964;-84
2023/04/17 03:54:41;;;;;;;40.20;28.80;;;;;;;10.23;100.00;99907.24;105471;1270;61496;-84
2023/04/17 03:57:11;;;;;;;37.50;27.00;;;;;;;10.14;100.00;99909.81;105244;1272;61322;-83
2023/04/17 03:59:39;;;;;;;35.40;25.50;;;;;;;10.11;100.00;99912.72;105626;1265;74433;-83
2023/04/17 04:02:08;;;;;;;34.00;24.50;;;;;;;10.13;100.00;99913.40;106255;1265;69106;-84
2023/04/17 04:04:36;;;;;;;;;;;;;;;10.28;100.00;99914.16;106102;1265;72035;-84
2023/04/17 04:07:09;;;;;;;34.20;24.10;;;;;;;10.31;100.00;99914.33;106130;1265;61428;-83
2023/04/17 04:09:37;;;;;;;;;;;;;;;10.43;100.00;99916.41;107136;1266;59559;-85
2023/04/17 04:12:07;;;;;;;40.40;24.90;;;;;;;10.61;100.00;99922.80;105610;1269;74532;-84
2023/04/17 04:14:40;;;;;;;30.50;22.30;;;;;;;10.69;100.00;99926.38;105575;1270;68447;-84
2023/04/17 04:17:09;;;;;;;31.50;22.50;;;;;;;10.53;100.00;99931.21;105797;1271;72794;-85
2023/04/17 04:19:38;;;;;;;;;;;;;;;10.60;100.00;99930.36;106158;1269;61438;-82
2023/04/17 04:22:06;;;;;;;35.00;24.20;;;;;;;10.78;100.00;99936.70;105955;1269;61046;-83
2023/04/17 04:24:41;;;;;;;35.70;24.20;;;;;;;10.62;100.00;99936.02;105559;1273;73826;-83
2023/04/17 04:27:16;;;;;;;35.20;23.40;;;;;;;10.48;100.00;99931.23;105300;1272;69578;-83
2023/04/17 04:29:47;;;;;;;36.00;24.20;;;;;;;10.08;100.00;99930.64;105406;1268;71374;-83
2023/04/17 04:32:19;;;;;;;36.10;26.00;;;;;;;10.12;100.00;99932.91;105722;1269;62266;-83
2023/04/17 04:34:47;;;;;;;30.20;22.40;;;;;;;10.42;100.00;99933.52;105281;1269;61172;-82
2023/04/17 04:37:16;;;;;;;32.70;22.80;;;;;;;10.67;100.00;99934.39;105398;1269;73452;-83
2023/04/17 04:39:46;;;;;;;32.30;24.20;;;;;;;10.65;100.00;99936.02;105681;1270;69591;-83
2023/04/17 04:42:21;;;;;;;40.10;24.90;;;;;;;10.82;100.00;99936.42;105653;1270;73983;-82
2023/04/17 04:45:04;;;;;;;32.90;23.20;;;;;;;11.00;100.00;99941.73;105597;1270;61371;-83
2023/04/17 04:47:32;;;;;;;33.60;23.80;;;;;;;11.15;100.00;99940.99;105437;1270;61290;-82
2023/04/17 04:50:01;;;;;;;28.40;23.30;;;;;;;11.37;100.00;99939.88;105898;1270;75154;-83
2023/04/17 04:52:31;;;;;;;31.40;22.90;;;;;;;11.38;100.00;99943.28;105576;1265;68607;-84
2023/04/17 04:55:01;;;;;;;31.60;22.90;;;;;;;11.47;100.00;99943.40;105907;1265;73521;-84
2023/04/17 04:57:30;;;;;;;29.30;21.90;;;;;;;11.41;100.00;99942.36;105793;1265;62091;-82
2023/04/17 05:00:00;;;;;;;31.40;23.50;;;;;;;11.51;100.00;99940.60;105753;1265;61478;-86
2023/04/17 05:02:34;;;;;;;31.40;24.00;;;;;;;11.44;100.00;99937.23;106540;1268;75587;-83
2023/04/17 05:05:07;;;;;;;33.00;24.00;;;;;;;11.46;100.00;99940.33;105858;1265;69584;-84
2023/04/17 05:07:36;;;;;;;29.30;23.00;;;;;;;11.63;100.00;99938.69;105820;1265;73800;-84
2023/04/17 05:10:07;;;;;;;32.00;23.90;;;;;;;11.50;100.00;99937.63;105681;1265;62095;-85
2023/04/17 05:12:40;;;;;;;31.50;22.30;;;;;;;11.18;100.00;99937.48;105639;1266;61406;-84
2023/04/17 05:15:10;;;;;;;31.20;22.70;;;;;;;11.24;100.00;99936.96;105698;1265;75705;-84
2023/04/17 05:17:38;;;;;;;;;;;;;;;11.24;100.00;99938.04;105718;1268;69933;-86
2023/04/17 05:20:08;;;;;;;28.60;22.00;;;;;;;11.50;100.00;99939.52;105402;1267;72147;-83
2023/04/17 05:22:44;;;;;;;35.60;23.80;;;;;;;11.11;100.00;99939.54;105254;1269;61348;-84
2023/04/17 05:25:12;;;;;;;29.10;22.50;;;;;;;11.08;100.00;99942.67;105536;1265;61445;-85
2023/04/17 05:27:41;;;;;;;29.70;21.90;;;;;;;11.33;100.00;99949.34;105812;1268;75580;-85
2023/04/17 05:30:11;;;;;;;29.40;22.80;;;;;;;11.81;100.00;99952.68;105798;1266;69547;-85
2023/04/17 05:32:40;;;;;;;30.00;24.50;;;;;;;12.00;100.00;99957.09;105762;1267;72705;-85
2023/04/17 05:35:36;;;;;;;26.30;20.80;;;;;;;11.77;100.00;99957.91;106205;1268;62880;-85
2023/04/17 05:38:06;;;;;;;32.90;23.00;;;;;;;11.55;100.00;99959.67;106141;1267;61290;-84
2023/04/17 05:40:36;;;;;;;27.80;21.20;;;;;;;11.41;100.00;99958.70;106330;1269;74504;-83
2023/04/17 05:43:09;;;;;;;30.80;24.10;;;;;;;11.33;100.00;99958.65;105759;1267;69653;-84
2023/04/17 05:45:37;;;;;;;28.70;23.40;;;;;;;11.30;100.00;99960.97;105973;1267;72483;-84
2023/04/17 05:48:15;;;;;;;38.80;25.00;;;;;;;11.38;100.00;99964.68;106188;1268;61340;-85
2023/04/17 05:50:43;;;;;;;38.50;25.40;;;;;;;11.24;100.00;99963.14;106012;1270;61278;-83
2023/04/17 05:53:11;;;;;;;38.70;26.20;;;;;;;11.45;100.00;99964.72;105695;1268;75211;-85
2023/04/17 05:55:47;;;;;;;37.70;28.20;;;;;;;11.48;100.00;99964.96;105676;1267;68637;-86
2023/04/17 05:58:17;;;;;;;37.80;26.60;;;;;;;11.52;100.00;99966.45;105434;1268;72639;-84
2023/04/17 06:01:06;;;;;;;37.80;27.30;;;;;;;11.42;100.00;99969.30;105690;1270;61285;-83
2023/04/17 06:03:36;;;;;;;52.30;30.10;;;;;;;11.45;100.00;99972.13;105658;1270;59917;-85
2023/04/17 06:06:18;;;;;;;45.90;28.50;;;;;;;10.70;100.00;99975.22;106447;1273;75423;-85
2023/04/17 06:08:51;;;;;;;38.60;26.50;;;;;;;10.79;100.00;99972.77;106789;1270;67168;-85
2023/04/17 06:11:23;;;;;;;37.80;27.30;;;;;;;11.28;100.00;99974.48;106242;1270;72429;-84
2023/04/17 06:13:53;;;;;;;34.00;25.60;;;;;;;11.57;100.00;99973.73;105808;1270;61538;-85
2023/04/17 06:16:25;;;;;;;33.00;21.40;;;;;;;11.49;100.00;99972.57;106056;1270;59225;-85
2023/04/17 06:18:53;;;;;;;32.10;21.90;;;;;;;10.90;100.00;99977.63;108470;1267;73419;-86
2023/04/17 06:21:21;;;;;;;28.20;21.80;;;;;;;10.96;100.00;99981.20;108548;1267;68808;-83
2023/04/17 06:23:50;;;;;;;;;;;;;;;10.48;100.00;99982.52;108641;1267;72373;-84
2023/04/17 06:26:20;;;;;;;32.10;19.90;;;;;;;10.51;100.00;99983.31;106298;1274;59968;-84
2023/04/17 06:28:51;;;;;;;29.70;19.60;;;;;;;10.48;100.00;99987.98;105982;1267;61297;-84
2023/04/17 06:31:20;;;;;;;30.00;20.50;;;;;;;10.61;100.00;99985.72;106285;1267;74744;-83
2023/04/17 06:33:49;;;;;;;29.70;20.30;;;;;;;10.32;100.00;99987.75;106086;1268;68124;-83
2023/04/17 06:36:19;;;;;;;35.30;24.10;;;;;;;10.25;100.00;99986.81;106415;1272;72546;-84
2023/04/17 06:38:55;;;;;;;36.50;24.10;;;;;;;10.39;100.00;99992.21;106304;1267;62008;-85
2023/04/17 06:41:23;;;;;;;;;;;;;;;10.22;100.00;99991.46;105914;1273;61362;-82
2023/04/17 06:44:01;;;;;;;82.70;39.90;;;;;;;10.30;100.00;99994.03;106303;1267;75473;-85
2023/04/17 06:46:43;;;;;;;39.10;26.70;;;;;;;10.42;100.00;99994.38;106265;1267;69404;-84
2023/04/17 06:49:12;;;;;;;;;;;;;;;10.62;100.00;99992.29;105950;1273;72688;-85
2023/04/17 06:51:44;;;;;;;47.40;32.30;;;;;;;10.74;100.00;99996.84;105780;1268;61857;-84
2023/04/17 06:54:13;;;;;;;46.70;28.50;;;;;;;10.88;100.00;99998.56;105802;1267;61186;-84
2023/04/17 06:56:41;;;;;;;;;;;;;;;10.83;100.00;99998.18;105850;1270;75883;-85
2023/04/17 06:59:09;;;;;;;70.60;36.80;;;;;;;10.01;100.00;99996.61;106214;1268;68037;-86
2023/04/17 07:01:39;;;;;;;46.50;31.50;;;;;;;10.14;100.00;99998.72;106258;1267;71411;-86
2023/04/17 07:04:08;;;;;;;43.90;32.40;;;;;;;9.91;100.00;100000.20;106455;1268;61028;-86
2023/04/17 07:06:38;;;;;;;34.30;26.50;;;;;;;10.27;100.00;99998.52;106463;1267;61123;-86
2023/04/17 07:09:07;;;;;;;33.60;21.80;;;;;;;10.87;100.00;100004.61;106205;1270;73778;-83
2023/04/17 07:11:36;;;;;;;34.00;23.10;;;;;;;11.36;100.00;100008.30;106321;1266;69845;-84
2023/04/17 07:14:07;;;;;;;36.00;25.00;;;;;;;11.16;100.00;100010.86;107248;1265;72581;-85
2023/04/17 07:16:39;;;;;;;35.90;25.10;;;;;;;10.84;100.00;100013.53;106710;1265;62129;-85
2023/04/17 07:19:08;;;;;;;31.20;24.40;;;;;;;10.68;100.00;100013.02;106663;1265;61106;-84
2023/04/17 07:21:36;;;;;;;29.50;21.70;;;;;;;11.27;100.00;100016.20;106783;1264;75481;-85
2023/04/17 07:24:08;;;;;;;28.10;21.00;;;;;;;10.07;100.00;100013.28;106461;1264;69163;-85
2023/04/17 07:26:39;;;;;;;27.60;20.10;;;;;;;10.08;100.00;100015.66;106314;1265;73409;-85
2023/04/17 07:29:08;;;;;;;32.10;23.10;;;;;;;9.96;100.00;100014.47;106345;1266;61255;-85
2023/04/17 07:31:37;;;;;;;35.20;24.30;;;;;;;9.41;100.00;100007.27;106482;1265;61251;-84
2023/04/17 07:34:05;;;;;;;26.10;18.80;;;;;;;9.45;100.00;100006.39;106203;1265;73484;-85
2023/04/17 07:36:33;;;;;;;31.00;22.30;;;;;;;9.78;100.00;100011.73;106397;1270;68600;-84
2023/04/17 07:39:09;;;;;;;33.10;21.50;;;;;;;9.73;100.00;100014.05;105878;1266;72872;-83
2023/04/17 07:41:40;;;;;;;36.60;22.60;;;;;;;9.71;100.00;100009.52;106479;1265;63064;-84
2023/04/17 07:44:08;;;;;;;48.40;28.50;;;;;;;9.82;100.00;100009.38;106312;1270;61148;-84
2023/04/17 07:46:40;;;;;;;36.60;22.80;;;;;;;9.83;100.00;100011.58;106567;1265;74722;-82
2023/04/17 07:49:08;;;;;;;26.30;16.90;;;;;;;9.91;100.00;100010.88;106718;1265;68472;-81
2023/04/17 07:51:41;;;;;;;34.10;20.60;;;;;;;9.87;100.00;100008.61;106216;1265;72014;-86
2023/04/17 07:54:14;;;;;;;28.30;19.70;;;;;;;9.76;100.00;100009.94;106990;1265;61794;-83
2023/04/17 07:56:48;;;;;;;19.70;14.90;;;;;;;10.01;100.00;100011.02;106601;1265;61267;-85
2023/04/17 07:59:17;;;;;;;36.40;22.70;;;;;;;9.99;100.00;100014.64;107461;1264;75576;-85
2023/04/17 08:01:46;;;;;;;26.10;19.10;;;;;;;10.15;100.00;100012.36;106669;1269;68314;-84
2023/04/17 08:04:14;;;;;;;21.30;15.70;;;;;;;10.13;100.00;100015.44;106772;1265;73149;-85
2023/04/17 08:06:44;;;;;;;21.10;16.70;;;;;;;10.06;100.00;100020.52;106822;1264;61758;-83
2023/04/17 08:09:12;;;;;;;26.80;18.10;;;;;;;10.13;100.00;100018.98;106660;1265;61258;-85
2023/04/17 08:11:42;;;;;;;23.30;16.70;;;;;;;10.21;100.00;100015.00;107140;1269;74994;-86
2023/04/17 08:14:24;;;;;;;29.00;20.00;;;;;;;10.46;100.00;100013.34;107121;1265;69040;-83
2023/04/17 08:16:54;;;;;;;22.30;18.60;;;;;;;10.65;100.00;100013.48;107942;1264;72779;-85
2023/04/17 08:19:23;;;;;;;24.20;17.60;;;;;;;10.76;100.00;100010.50;106970;1264;61275;-84
2023/04/17 08:21:53;;;;;;;;;;;;;;;10.87;100.00;100010.64;106654;1265;62300;-85
2023/04/17 08:24:23;;;;;;;35.40;22.00;;;;;;;10.74;100.00;100009.62;107321;1268;73697;-86
2023/04/17 08:26:56;;;;;;;33.30;23.30;;;;;;;10.84;100.00;100012.24;106961;1268;68642;-85
2023/04/17 08:29:29;;;;;;;77.40;47.10;;;;;;;11.11;100.00;100008.09;106472;1268;73744;-83
2023/04/17 08:32:41;;;;;;;48.80;34.90;;;;;;;11.17;100.00;100008.09;106939;1268;62879;-85
2023/04/17 08:35:10;;;;;;;27.80;19.00;;;;;;;11.20;100.00;100007.80;106897;1268;61473;-85
2023/04/17 08:37:41;;;;;;;29.90;16.30;;;;;;;11.17;100.00;100012.05;106657;1268;74458;-82
2023/04/17 08:40:12;;;;;;;20.70;14.10;;;;;;;11.08;100.00;100006.34;106513;1268;69857;-85
2023/04/17 08:42:41;;;;;;;18.60;13.40;;;;;;;11.23;100.00;100007.30;106894;1268;71633;-84
2023/04/17 08:45:12;;;;;;;30.00;18.00;;;;;;;11.40;100.00;100007.60;105923;1268;61351;-84
2023/04/17 08:47:41;;;;;;;24.10;16.20;;;;;;;11.14;100.00;100008.51;105884;1268;61373;-82
2023/04/17 08:50:15;;;;;;;19.30;14.60;;;;;;;11.05;100.00;100007.25;105444;1273;75626;-84
2023/04/17 08:52:49;;;;;;;23.20;15.70;;;;;;;11.14;100.00;100002.98;105487;1268;68857;-84
2023/04/17 08:55:23;;;;;;;16.70;11.90;;;;;;;11.13;100.00;100006.89;105470;1265;73087;-84
2023/04/17 08:58:05;;;;;;;22.60;14.50;;;;;;;11.49;100.00;100005.52;105803;1269;62395;-84
2023/04/17 09:00:40;;;;;;;16.00;10.90;;;;;;;11.75;100.00;100005.42;105424;1266;61464;-81
2023/04/17 09:03:12;;;;;;;20.50;13.50;;;;;;;11.75;100.00;100003.59;105339;1265;75441;-82
2023/04/17 09:05:44;;;;;;;24.70;17.00;;;;;;;11.69;100.00;100006.95;105708;1265;69466;-82
2023/04/17 09:08:22;;;;;;;21.10;14.10;;;;;;;11.52;100.00;99999.05;105393;1270;73091;-83
2023/04/17 09:10:54;;;;;;;15.20;12.60;;;;;;;11.66;100.00;99998.42;105435;1276;61704;-83
2023/04/17 09:13:24;;;;;;;25.00;13.40;;;;;;;11.81;100.00;99996.99;105517;1271;61292;-81
2023/04/17 09:16:09;;;;;;;16.60;11.50;;;;;;;11.88;100.00;99994.78;104978;1273;75403;-80
2023/04/17 09:18:38;;;;;;;29.70;18.30;;;;;;;12.03;100.00;99999.58;105722;1271;70068;-82
2023/04/17 09:21:07;;;;;;;26.30;19.60;;;;;;;12.31;100.00;99998.38;105225;1270;73608;-80
2023/04/17 09:23:54;;;;;;;;;;;;;;;12.47;100.00;99997.06;104987;1271;63086;-83
2023/04/17 09:26:25;;;;;;;20.70;14.80;;;;;;;12.55;100.00;99998.65;105278;1273;61343;-82
2023/04/17 09:29:02;;;;;;;18.00;10.60;;;;;;;12.47;100.00;99996.31;104847;1271;75862;-78
2023/04/17 09:31:33;;;;;;;25.10;11.90;;;;;;;12.11;100.00;99997.19;105592;1272;69771;-82
2023/04/17 09:34:03;;;;;;;14.30;9.60;;;;;;;12.23;100.00;99998.77;107080;1269;72945;-82
2023/04/17 09:36:32;;;;;;;18.50;12.80;;;;;;;12.17;100.00;100000.06;108504;1270;61950;-81
2023/04/17 09:39:02;;;;;;;16.30;10.80;;;;;;;12.45;100.00;100001.41;106454;1269;61243;-82
2023/04/17 09:41:35;;;;;;;20.20;12.30;;;;;;;12.42;100.00;99998.52;105121;1268;75856;-81
2023/04/17 09:44:06;;;;;;;51.50;29.40;;;;;;;12.06;100.00;99994.56;105273;1268;69554;-79
2023/04/17 09:46:46;;;;;;;27.20;16.90;;;;;;;12.14;100.00;99992.27;105203;1271;73233;-80
2023/04/17 09:49:38;;;;;;;31.10;18.40;;;;;;;12.23;100.00;99993.06;105188;1268;62406;-81
2023/04/17 09:52:07;;;;;;;13.60;11.00;;;;;;;12.15;100.00;99986.25;105170;1265;61402;-80
2023/04/17 09:54:38;;;;;;;20.30;14.30;;;;;;;12.22;100.00;99990.20;105185;1270;75443;-81
2023/04/17 09:57:07;;;;;;;27.90;12.30;;;;;;;12.34;100.00;99988.34;105295;1265;67646;-80
2023/04/17 09:59:40;;;;;;;24.70;14.20;;;;;;;12.20;100.00;99987.17;105319;1268;73351;-79
2023/04/17 10:02:10;;;;;;;43.30;21.40;;;;;;;12.34;100.00;99989.27;105112;1268;62080;-82
2023/04/17 10:04:40;;;;;;;35.20;19.70;;;;;;;12.40;100.00;99987.11;105182;1274;61158;-80
2023/04/17 10:07:09;;;;;;;25.60;14.90;;;;;;;12.35;100.00;99990.45;105158;1270;74682;-79
2023/04/17 10:09:40;;;;;;;;;;;;;;;12.32;100.00;99991.91;105078;1273;68865;-81
2023/04/17 10:12:16;;;;;;;16.60;10.20;;;;;;;12.53;100.00;99994.91;105364;1264;71925;-81
2023/04/17 10:14:47;;;;;;;18.50;12.80;;;;;;;12.71;100.00;99992.21;105261;1269;62997;-82
2023/04/17 10:17:33;;;;;;;25.60;14.10;;;;;;;13.00;100.00;99996.48;105204;1265;61384;-79
2023/04/17 10:20:14;;;;;;;17.40;10.10;;;;;;;13.31;100.00;99994.95;105267;1265;75848;-81
2023/04/17 10:22:48;;;;;;;11.20;8.40;;;;;;;13.54;100.00;100000.02;105186;1269;68540;-83
2023/04/17 10:25:16;;;;;;;20.00;11.00;;;;;;;13.65;100.00;100001.20;105369;1269;72518;-80
2023/04/17 10:27:47;;;;;;;20.00;11.30;;;;;;;13.63;100.00;99996.27;105207;1265;62885;-81
2023/04/17 10:30:16;;;;;;;14.50;9.50;;;;;;;13.55;98.93;99990.63;105405;1265;61293;-81
2023/04/17 10:32:45;;;;;;;14.80;8.60;;;;;;;13.50;100.00;99989.59;105319;1269;73857;-80
2023/04/17 10:35:16;;;;;;;;;;;;;;;13.55;98.66;99989.60;105490;1269;68244;-78
2023/04/17 10:37:49;;;;;;;15.00;6.30;;;;;;;13.48;95.11;99988.38;105542;1269;71715;-80
2023/04/17 10:40:21;;;;;;;9.60;6.40;;;;;;;13.36;84.55;99987.23;105672;1270;62098;-81
2023/04/17 10:43:21;;;;;;;9.50;6.30;;;;;;;13.68;80.33;99990.58;105563;1271;61268;-82
2023/04/17 10:45:59;;;;;;;11.20;7.10;;;;;;;13.87;76.42;99991.08;105238;1269;74912;-81
2023/04/17 10:48:36;;;;;;;8.30;4.00;;;;;;;14.14;75.53;99992.62;105502;1265;69777;-78
2023/04/17 10:51:23;;;;;;;7.80;5.60;;;;;;;14.11;56.55;99996.48;105642;1265;72562;-81
2023/04/17 10:53:55;;;;;;;8.40;5.30;;;;;;;14.44;52.84;100000.30;105353;1267;61482;-80
2023/04/17 10:56:39;;;;;;;8.40;4.20;;;;;;;14.56;49.05;100000.84;105296;1269;61271;-80
2023/04/17 10:59:08;;;;;;;7.10;5.20;;;;;;;14.53;48.41;99996.27;105293;1270;74683;-79
2023/04/17 11:01:54;;;;;;;11.80;8.50;;;;;;;14.39;49.97;99990.82;105474;1271;69200;-82
2023/04/17 11:04:30;;;;;;;10.00;6.80;;;;;;;14.81;49.19;99991.84;105457;1269;72823;-83
2023/04/17 11:06:58;;;;;;;21.30;11.50;;;;;;;15.13;48.02;99989.44;105216;1265;61443;-80
2023/04/17 11:09:28;;;;;;;9.00;6.10;;;;;;;15.26;49.21;99991.73;105356;1265;61278;-80
2023/04/17 11:12:02;;;;;;;6.70;3.90;;;;;;;15.93;46.49;99995.98;105296;1269;75450;-81
2023/04/17 11:14:31;;;;;;;8.40;4.10;;;;;;;15.86;47.89;99994.52;105312;1265;69837;-79
2023/04/17 11:17:00;;;;;;;12.10;7.30;;;;;;;14.86;46.48;99993.46;105126;1267;73472;-80
2023/04/17 11:19:31;;;;;;;9.70;5.00;;;;;;;14.60;45.90;99988.45;104998;1276;61358;-80
2023/04/17 11:22:01;;;;;;;11.70;6.90;;;;;;;14.71;45.62;99988.17;105269;1270;61253;-82
2023/04/17 11:24:30;;;;;;;11.20;6.10;;;;;;;14.94;45.46;99985.02;105037;1274;74592;-79